createdAt,value
2023-12-21T00:02:10.929Z,7.12
2023-12-21T00:04:37.830Z,7.13
2023-12-21T00:07:04.958Z,7.00
2023-12-21T00:09:31.904Z,7.07
2023-12-21T00:11:58.798Z,7.17
2023-12-21T00:14:28.180Z,7.12
2023-12-21T00:16:55.051Z,7.21
2023-12-21T00:19:22.075Z,7.22
2023-12-21T00:21:49.711Z,7.28
2023-12-21T00:24:16.641Z,7.30
2023-12-21T00:26:43.482Z,7.22
2023-12-21T00:29:10.615Z,7.23
2023-12-21T00:31:37.521Z,7.23
2023-12-21T00:34:04.493Z,7.16
2023-12-21T00:36:32.271Z,7.22
2023-12-21T00:38:59.193Z,7.37
2023-12-21T00:41:26.344Z,7.37
2023-12-21T00:43:53.171Z,7.31
2023-12-21T00:46:20.729Z,7.33
2023-12-21T00:48:47.831Z,7.31
2023-12-21T00:51:14.663Z,7.40
2023-12-21T00:53:41.487Z,7.34
2023-12-21T00:56:10.003Z,7.33
2023-12-21T00:58:36.863Z,7.32
2023-12-21T01:01:04.022Z,7.36
2023-12-21T01:03:31.247Z,7.22
2023-12-21T01:05:58.292Z,7.29
2023-12-21T01:08:25.268Z,7.42
2023-12-21T01:10:52.123Z,7.31
2023-12-21T01:13:19.276Z,7.18
2023-12-21T01:15:46.116Z,7.19
2023-12-21T01:18:13.174Z,7.23
2023-12-21T01:20:40.001Z,7.26
2023-12-21T01:23:07.274Z,7.30
2023-12-21T01:25:34.199Z,7.30
2023-12-21T01:28:01.163Z,7.31
2023-12-21T01:30:28.705Z,7.30
2023-12-21T01:32:55.673Z,7.16
2023-12-21T01:35:22.681Z,7.24
2023-12-21T01:37:50.503Z,7.23
2023-12-21T01:40:17.765Z,7.27
2023-12-21T01:42:44.963Z,7.24
2023-12-21T01:45:12.871Z,7.30
2023-12-21T01:47:40.118Z,7.05
2023-12-21T01:50:07.879Z,7.32
2023-12-21T01:52:35.948Z,7.20
2023-12-21T01:55:04.748Z,7.27
2023-12-21T01:57:31.660Z,7.33
2023-12-21T01:59:59.143Z,7.33
2023-12-21T02:02:26.021Z,7.36
2023-12-21T02:04:53.856Z,7.39
2023-12-21T02:07:20.722Z,7.33
2023-12-21T02:09:47.630Z,7.33
2023-12-21T02:12:14.496Z,7.28
2023-12-21T02:14:41.698Z,7.27
2023-12-21T02:17:13.955Z,7.28
2023-12-21T02:19:41.992Z,7.37
2023-12-21T02:22:10.853Z,7.37
2023-12-21T02:24:39.036Z,7.34
2023-12-21T02:27:06.007Z,7.44
2023-12-21T02:29:32.853Z,7.40
2023-12-21T02:31:59.792Z,7.35
2023-12-21T02:34:26.847Z,7.28
2023-12-21T02:36:54.327Z,7.38
2023-12-21T02:39:21.170Z,7.35
2023-12-21T02:41:50.903Z,7.42
2023-12-21T02:44:17.812Z,7.40
2023-12-21T02:46:44.828Z,7.50
2023-12-21T02:49:11.769Z,7.49
2023-12-21T02:51:38.806Z,7.51
2023-12-21T02:54:05.610Z,7.51
2023-12-21T02:56:32.441Z,7.38
2023-12-21T02:58:59.337Z,7.51
2023-12-21T03:01:26.845Z,7.37
2023-12-21T03:03:53.937Z,7.37
2023-12-21T03:06:20.845Z,7.46
2023-12-21T03:08:47.687Z,7.46
2023-12-21T03:11:14.523Z,7.44
2023-12-21T03:13:41.481Z,7.42
2023-12-21T03:16:08.974Z,7.42
2023-12-21T03:18:35.870Z,7.39
2023-12-21T03:21:03.711Z,7.43
2023-12-21T03:23:31.792Z,7.50
2023-12-21T03:25:58.703Z,7.55
2023-12-21T03:28:25.569Z,7.51
2023-12-21T03:30:52.520Z,7.46
2023-12-21T03:33:19.516Z,7.58
2023-12-21T03:35:46.345Z,7.52
2023-12-21T03:38:13.185Z,7.45
2023-12-21T03:40:40.131Z,7.52
2023-12-21T03:43:07.062Z,7.47
2023-12-21T03:45:36.457Z,7.54
2023-12-21T03:48:04.520Z,7.52
2023-12-21T03:50:31.342Z,7.49
2023-12-21T03:52:58.177Z,7.57
2023-12-21T03:55:25.147Z,7.53
2023-12-21T03:57:52.812Z,7.56
2023-12-21T04:00:20.126Z,7.61
2023-12-21T04:02:47.923Z,7.59
2023-12-21T04:05:16.515Z,7.72
2023-12-21T04:07:43.434Z,7.72
2023-12-21T04:10:11.430Z,7.64
2023-12-21T04:12:38.375Z,7.68
2023-12-21T04:15:05.864Z,7.70
2023-12-21T04:17:32.813Z,7.68
2023-12-21T04:19:59.811Z,7.72
2023-12-21T04:22:26.748Z,7.79
2023-12-21T04:24:53.582Z,7.71
2023-12-21T04:27:20.400Z,7.73
2023-12-21T04:29:47.520Z,7.76
2023-12-21T04:32:14.337Z,7.72
2023-12-21T04:34:41.212Z,7.77
2023-12-21T04:37:08.035Z,7.75
2023-12-21T04:39:36.017Z,7.79
2023-12-21T04:42:03.991Z,7.78
2023-12-21T04:44:30.903Z,7.78
2023-12-21T04:46:57.961Z,7.79
2023-12-21T04:49:25.653Z,7.84
2023-12-21T04:51:52.720Z,7.76
2023-12-21T04:54:19.678Z,7.68
2023-12-21T04:56:47.504Z,7.64
2023-12-21T04:59:14.360Z,7.67
2023-12-21T05:01:42.344Z,7.62
2023-12-21T05:04:10.900Z,7.50
2023-12-21T05:06:37.796Z,7.71
2023-12-21T05:09:04.758Z,7.76
2023-12-21T05:11:31.662Z,7.80
2023-12-21T05:13:58.540Z,7.84
2023-12-21T05:16:25.440Z,7.79
2023-12-21T05:18:52.341Z,7.80
2023-12-21T05:21:19.197Z,7.78
2023-12-21T05:23:46.037Z,7.80
2023-12-21T05:26:16.078Z,7.91
2023-12-21T05:28:44.110Z,7.86
2023-12-21T05:31:12.429Z,7.83
2023-12-21T05:33:40.834Z,7.83
2023-12-21T05:36:08.433Z,7.79
2023-12-21T05:38:35.429Z,7.74
2023-12-21T05:41:03.239Z,7.81
2023-12-21T05:43:30.110Z,7.82
2023-12-21T05:45:57.222Z,7.80
2023-12-21T05:48:24.377Z,7.81
2023-12-21T05:50:51.462Z,7.90
2023-12-21T05:53:18.271Z,7.77
2023-12-21T05:55:45.267Z,7.75
2023-12-21T05:58:12.602Z,7.78
2023-12-21T06:00:39.515Z,7.82
2023-12-21T06:03:06.384Z,7.84
2023-12-21T06:05:33.446Z,7.79
2023-12-21T06:08:00.288Z,7.80
2023-12-21T06:10:27.112Z,7.87
2023-12-21T06:12:54.487Z,7.98
2023-12-21T06:15:21.291Z,7.99
2023-12-21T06:17:48.222Z,7.89
2023-12-21T06:20:15.222Z,7.83
2023-12-21T06:22:42.224Z,7.85
2023-12-21T06:25:09.555Z,7.87
2023-12-21T06:27:36.510Z,7.83
2023-12-21T06:30:03.438Z,7.90
2023-12-21T06:32:30.444Z,7.92
2023-12-21T06:34:57.463Z,7.92
2023-12-21T06:37:24.485Z,7.95
2023-12-21T06:39:51.547Z,7.88
2023-12-21T06:42:18.353Z,7.84
2023-12-21T06:44:45.159Z,7.80
2023-12-21T06:47:13.345Z,7.90
2023-12-21T06:49:40.216Z,7.82
2023-12-21T06:52:07.087Z,7.77
2023-12-21T06:54:35.268Z,7.78
2023-12-21T06:57:04.344Z,7.75
2023-12-21T06:59:31.525Z,7.79
2023-12-21T07:01:58.420Z,7.75
2023-12-21T07:04:25.433Z,7.66
2023-12-21T07:06:52.360Z,7.81
2023-12-21T07:09:20.702Z,7.85
2023-12-21T07:11:49.185Z,7.86
2023-12-21T07:14:16.659Z,7.85
2023-12-21T07:16:43.488Z,7.87
2023-12-21T07:19:11.236Z,7.89
2023-12-21T07:21:38.193Z,7.93
2023-12-21T07:24:05.785Z,7.95
2023-12-21T07:26:32.625Z,7.91
2023-12-21T07:28:59.832Z,7.88
2023-12-21T07:31:26.769Z,7.81
2023-12-21T07:33:53.713Z,7.93
2023-12-21T07:36:21.799Z,7.89
2023-12-21T07:38:48.685Z,7.80
2023-12-21T07:41:15.531Z,8.00
2023-12-21T07:43:42.799Z,8.04
2023-12-21T07:46:10.807Z,8.09
2023-12-21T07:48:38.013Z,8.06
2023-12-21T07:51:06.028Z,8.08
2023-12-21T07:53:32.913Z,8.09
2023-12-21T07:56:00.777Z,8.07
2023-12-21T07:58:27.747Z,8.13
2023-12-21T08:00:54.788Z,8.15
2023-12-21T08:03:21.707Z,8.13
2023-12-21T08:05:49.191Z,8.15
2023-12-21T08:08:16.099Z,8.16
2023-12-21T08:10:43.393Z,8.24
2023-12-21T08:13:10.766Z,8.21
2023-12-21T08:15:38.595Z,8.24
2023-12-21T08:18:06.075Z,8.28
2023-12-21T08:20:34.458Z,8.34
2023-12-21T08:23:04.262Z,8.13
2023-12-21T08:25:32.797Z,8.31
2023-12-21T08:28:00.381Z,8.16
2023-12-21T08:30:27.423Z,8.32
2023-12-21T08:32:54.475Z,8.34
2023-12-21T08:35:21.427Z,8.37
2023-12-21T08:37:48.229Z,8.38
2023-12-21T08:40:16.499Z,8.27
2023-12-21T08:42:43.430Z,8.43
2023-12-21T08:45:10.902Z,8.44
2023-12-21T08:47:42.411Z,8.49
2023-12-21T08:50:13.189Z,8.51
2023-12-21T08:52:41.173Z,8.40
2023-12-21T08:55:09.722Z,8.42
2023-12-21T08:57:38.000Z,8.60
2023-12-21T09:00:13.973Z,8.58
2023-12-21T09:02:41.695Z,8.65
2023-12-21T09:05:08.967Z,8.64
2023-12-21T09:07:36.013Z,8.68
2023-12-21T09:10:04.366Z,8.73
2023-12-21T09:12:32.644Z,8.82
2023-12-21T09:14:59.939Z,8.86
2023-12-21T09:17:26.942Z,8.82
2023-12-21T09:19:53.943Z,8.82
2023-12-21T09:22:22.592Z,8.94
2023-12-21T09:24:50.388Z,8.93
2023-12-21T09:27:17.252Z,8.87
2023-12-21T09:29:44.230Z,8.91
2023-12-21T09:32:11.840Z,9.00
2023-12-21T09:34:39.624Z,8.91
2023-12-21T09:37:08.098Z,8.96
2023-12-21T09:39:35.721Z,8.84
2023-12-21T09:42:04.328Z,9.07
2023-12-21T09:44:32.430Z,8.99
2023-12-21T09:47:02.557Z,9.04
2023-12-21T09:49:31.926Z,8.99
2023-12-21T09:52:00.071Z,8.97
2023-12-21T09:54:27.665Z,8.86
2023-12-21T09:56:55.469Z,8.92
2023-12-21T09:59:22.845Z,8.95
2023-12-21T10:01:52.442Z,8.92
2023-12-21T10:04:20.475Z,8.98
2023-12-21T10:06:48.698Z,9.03
2023-12-21T10:09:17.116Z,9.08
2023-12-21T10:11:44.877Z,9.15
2023-12-21T10:14:20.674Z,9.17
2023-12-21T10:16:48.674Z,9.14
2023-12-21T10:19:17.887Z,9.09
2023-12-21T10:21:44.866Z,9.03
2023-12-21T10:24:13.138Z,9.09
2023-12-21T10:26:51.292Z,9.09
2023-12-21T10:29:20.192Z,9.17
2023-12-21T10:31:48.899Z,9.14
2023-12-21T10:34:16.628Z,8.95
2023-12-21T10:36:44.780Z,9.15
2023-12-21T10:39:14.686Z,9.16
2023-12-21T10:41:44.314Z,9.20
2023-12-21T10:44:16.524Z,9.21
2023-12-21T10:46:43.979Z,9.16
2023-12-21T10:49:13.319Z,9.19
2023-12-21T10:51:44.218Z,9.18
2023-12-21T10:54:15.803Z,9.17
2023-12-21T10:56:43.620Z,9.19
2023-12-21T10:59:14.079Z,9.32
2023-12-21T11:01:41.898Z,9.13
2023-12-21T11:04:12.323Z,9.28
2023-12-21T11:06:40.873Z,9.26
2023-12-21T11:09:10.701Z,9.13
2023-12-21T11:11:38.071Z,9.21
2023-12-21T11:14:05.197Z,9.25
2023-12-21T11:16:37.898Z,9.34
2023-12-21T11:19:10.216Z,9.36
2023-12-21T11:21:37.826Z,9.35
2023-12-21T11:24:05.896Z,9.28
2023-12-21T11:26:33.045Z,9.22
2023-12-21T11:29:11.708Z,9.26
2023-12-21T11:31:42.143Z,9.25
2023-12-21T11:34:23.968Z,9.25
2023-12-21T11:37:02.147Z,9.25
2023-12-21T11:39:31.602Z,9.29
2023-12-21T11:42:01.677Z,9.30
2023-12-21T11:44:40.411Z,9.14
2023-12-21T11:47:09.301Z,9.39
2023-12-21T11:49:40.645Z,9.35
2023-12-21T11:52:07.923Z,9.31
2023-12-21T11:54:37.256Z,9.34
2023-12-21T11:57:14.090Z,9.35
2023-12-21T11:59:41.371Z,9.45
2023-12-21T12:02:14.927Z,9.47
2023-12-21T12:04:52.488Z,9.41
2023-12-21T12:07:22.480Z,9.38
2023-12-21T12:09:49.436Z,9.38
2023-12-21T12:12:17.626Z,9.37
2023-12-21T12:14:45.176Z,9.32
2023-12-21T12:17:12.222Z,9.34
2023-12-21T12:19:40.370Z,9.31
2023-12-21T12:22:11.043Z,9.34
2023-12-21T12:24:38.673Z,9.35
2023-12-21T12:27:11.311Z,9.33
2023-12-21T12:29:39.526Z,9.34
2023-12-21T12:32:06.995Z,9.35
2023-12-21T12:34:35.867Z,9.33
2023-12-21T12:37:04.976Z,9.37
2023-12-21T12:39:32.743Z,9.45
2023-12-21T12:42:01.106Z,9.41
2023-12-21T12:44:28.621Z,9.53
2023-12-21T12:46:56.246Z,9.58
2023-12-21T12:49:23.745Z,9.54
2023-12-21T12:51:53.380Z,9.58
2023-12-21T12:54:20.300Z,9.36
2023-12-21T12:56:52.391Z,9.63
2023-12-21T12:59:20.671Z,9.62
2023-12-21T13:01:47.906Z,9.54
2023-12-21T13:04:15.354Z,9.64
2023-12-21T13:06:42.552Z,9.65
2023-12-21T13:09:09.751Z,9.64
2023-12-21T13:11:36.799Z,9.69
2023-12-21T13:14:05.571Z,9.70
2023-12-21T13:16:32.474Z,9.71
2023-12-21T13:18:59.359Z,9.73
2023-12-21T13:21:26.331Z,9.75
2023-12-21T13:23:53.267Z,9.62
2023-12-21T13:26:21.478Z,9.82
2023-12-21T13:28:48.523Z,9.89
2023-12-21T13:31:15.854Z,9.93
2023-12-21T13:33:42.979Z,9.86
2023-12-21T13:36:09.991Z,9.83
2023-12-21T13:38:38.761Z,9.82
2023-12-21T13:41:05.848Z,9.81
2023-12-21T13:43:32.724Z,9.76
2023-12-21T13:45:59.689Z,9.76
2023-12-21T13:48:27.038Z,9.69
2023-12-21T13:50:54.113Z,9.77
2023-12-21T13:53:20.973Z,9.66
2023-12-21T13:55:48.528Z,9.69
2023-12-21T13:58:15.645Z,9.65
2023-12-21T14:00:42.561Z,9.61
2023-12-21T14:03:10.023Z,9.60
2023-12-21T14:05:36.964Z,9.65
2023-12-21T14:08:04.514Z,9.67
2023-12-21T14:10:31.604Z,9.44
2023-12-21T14:13:01.551Z,9.66
2023-12-21T14:15:29.032Z,9.65
2023-12-21T14:17:56.583Z,9.62
2023-12-21T14:20:24.799Z,9.61
2023-12-21T14:22:52.166Z,9.59
2023-12-21T14:25:19.169Z,9.61
2023-12-21T14:27:47.169Z,9.66
2023-12-21T14:30:14.916Z,9.58
2023-12-21T14:32:42.157Z,9.67
2023-12-21T14:35:09.202Z,9.59
2023-12-21T14:37:36.829Z,9.65
2023-12-21T14:40:05.175Z,9.57
2023-12-21T14:42:33.820Z,9.63
2023-12-21T14:45:00.654Z,9.57
2023-12-21T14:47:30.932Z,9.59
2023-12-21T14:49:58.355Z,9.65
2023-12-21T14:52:25.404Z,9.58
2023-12-21T14:54:52.788Z,9.75
2023-12-21T14:57:20.216Z,9.58
2023-12-21T14:59:47.154Z,9.67
2023-12-21T15:02:14.238Z,9.68
2023-12-21T15:04:41.220Z,9.73
2023-12-21T15:07:08.740Z,9.70
2023-12-21T15:09:37.500Z,9.67
2023-12-21T15:12:05.136Z,9.73
2023-12-21T15:14:32.420Z,9.77
2023-12-21T15:17:00.377Z,9.68
2023-12-21T15:19:32.241Z,9.63
2023-12-21T15:22:01.393Z,9.64
2023-12-21T15:24:28.292Z,9.68
2023-12-21T15:26:55.233Z,9.68
2023-12-21T15:29:22.055Z,9.66
2023-12-21T15:31:49.074Z,9.67
2023-12-21T15:34:16.135Z,9.64
2023-12-21T15:36:43.455Z,9.66
2023-12-21T15:39:10.405Z,9.75
2023-12-21T15:41:37.331Z,9.69
2023-12-21T15:44:04.339Z,9.71
2023-12-21T15:46:33.029Z,9.71
2023-12-21T15:49:01.277Z,9.71
2023-12-21T15:51:28.133Z,9.73
2023-12-21T15:53:55.342Z,9.74
2023-12-21T15:56:22.197Z,9.78
2023-12-21T15:58:49.270Z,9.75
2023-12-21T16:01:17.920Z,9.75
2023-12-21T16:03:44.874Z,9.78
2023-12-21T16:06:11.859Z,9.84
2023-12-21T16:08:38.886Z,9.80
2023-12-21T16:11:07.846Z,9.74
2023-12-21T16:13:34.821Z,9.79
2023-12-21T16:16:03.297Z,9.73
2023-12-21T16:18:30.165Z,9.66
2023-12-21T16:20:57.756Z,9.77
2023-12-21T16:23:24.592Z,9.78
2023-12-21T16:25:51.471Z,9.74
2023-12-21T16:28:18.338Z,9.79
2023-12-21T16:30:45.178Z,9.71
2023-12-21T16:33:12.177Z,9.73
2023-12-21T16:35:39.028Z,9.76
2023-12-21T16:38:06.522Z,9.72
2023-12-21T16:40:33.464Z,9.73
2023-12-21T16:43:00.339Z,9.69
2023-12-21T16:45:30.584Z,9.77
2023-12-21T16:47:58.356Z,9.73
2023-12-21T16:50:27.706Z,9.67
2023-12-21T16:52:54.604Z,9.71
2023-12-21T16:55:21.526Z,9.56
2023-12-21T16:57:49.946Z,9.69
2023-12-21T17:00:18.541Z,9.66
2023-12-21T17:02:46.036Z,9.70
2023-12-21T17:05:14.157Z,9.69
2023-12-21T17:07:41.044Z,9.70
2023-12-21T17:10:08.277Z,9.76
2023-12-21T17:12:36.458Z,9.79
2023-12-21T17:15:04.105Z,9.76
2023-12-21T17:17:31.026Z,9.78
2023-12-21T17:19:57.927Z,9.79
2023-12-21T17:22:24.785Z,9.90
2023-12-21T17:24:51.615Z,9.84
2023-12-21T17:27:18.483Z,9.80
2023-12-21T17:29:45.313Z,9.79
2023-12-21T17:32:12.267Z,9.90
2023-12-21T17:34:39.191Z,9.88
2023-12-21T17:37:06.044Z,9.83
2023-12-21T17:39:32.907Z,9.75
2023-12-21T17:41:59.791Z,9.89
2023-12-21T17:44:27.922Z,9.92
2023-12-21T17:46:54.791Z,9.95
2023-12-21T17:49:21.891Z,9.93
2023-12-21T17:51:49.057Z,9.96
2023-12-21T17:54:16.677Z,9.87
2023-12-21T17:56:43.541Z,9.96
2023-12-21T17:59:11.502Z,9.94
2023-12-21T18:01:38.442Z,9.91
2023-12-21T18:04:05.566Z,9.96
2023-12-21T18:06:34.621Z,9.98
2023-12-21T18:09:01.576Z,9.95
2023-12-21T18:11:30.015Z,10.02
2023-12-21T18:13:57.124Z,9.99
2023-12-21T18:16:25.727Z,10.07
2023-12-21T18:18:52.826Z,10.11
2023-12-21T18:21:19.760Z,10.11
2023-12-21T18:23:46.579Z,10.03
2023-12-21T18:26:13.851Z,10.16
2023-12-21T18:28:40.755Z,10.13
2023-12-21T18:31:07.642Z,10.15
2023-12-21T18:33:34.776Z,10.18
2023-12-21T18:36:01.577Z,10.17
2023-12-21T18:38:28.367Z,10.24
2023-12-21T18:40:55.797Z,10.11
2023-12-21T18:43:22.722Z,10.28
2023-12-21T18:45:52.140Z,10.32
2023-12-21T18:48:19.110Z,10.34
2023-12-21T18:50:47.357Z,10.35
2023-12-21T18:53:14.401Z,10.32
2023-12-21T18:55:41.417Z,10.36
2023-12-21T18:58:08.898Z,10.34
2023-12-21T19:00:35.791Z,10.39
2023-12-21T19:03:02.724Z,10.43
2023-12-21T19:05:30.512Z,10.51
2023-12-21T19:07:59.123Z,10.51
2023-12-21T19:10:26.224Z,10.51
2023-12-21T19:12:53.086Z,10.56
2023-12-21T19:15:19.898Z,10.59
2023-12-21T19:17:47.114Z,10.63
2023-12-21T19:20:14.197Z,10.61
2023-12-21T19:22:41.471Z,10.57
2023-12-21T19:25:12.698Z,10.54
2023-12-21T19:27:40.591Z,10.56
2023-12-21T19:30:11.059Z,10.54
2023-12-21T19:32:38.038Z,10.48
2023-12-21T19:35:05.608Z,10.44
2023-12-21T19:37:32.584Z,10.58
2023-12-21T19:39:59.453Z,10.58
2023-12-21T19:42:26.286Z,10.51
2023-12-21T19:44:53.129Z,10.41
2023-12-21T19:47:20.050Z,10.42
2023-12-21T19:49:47.010Z,10.42
2023-12-21T19:52:14.003Z,10.43
2023-12-21T19:54:40.934Z,10.43
2023-12-21T19:57:09.659Z,10.38
2023-12-21T19:59:36.523Z,10.42
2023-12-21T20:02:04.646Z,10.41
2023-12-21T20:04:31.824Z,10.45
2023-12-21T20:06:58.846Z,10.51
2023-12-21T20:09:26.353Z,10.52
2023-12-21T20:11:53.236Z,10.53
2023-12-21T20:14:21.671Z,10.55
2023-12-21T20:16:54.982Z,10.46
2023-12-21T20:19:25.556Z,10.46
2023-12-21T20:21:54.593Z,10.44
2023-12-21T20:24:22.867Z,10.45
2023-12-21T20:26:49.756Z,10.48
2023-12-21T20:29:16.577Z,10.46
2023-12-21T20:31:43.451Z,10.48
2023-12-21T20:34:13.158Z,10.44
2023-12-21T20:36:40.241Z,10.39
2023-12-21T20:39:07.675Z,10.41
2023-12-21T20:41:35.125Z,10.37
2023-12-21T20:44:02.135Z,10.44
2023-12-21T20:46:30.735Z,10.50
2023-12-21T20:48:57.981Z,10.36
2023-12-21T20:51:24.808Z,10.36
2023-12-21T20:53:51.708Z,10.52
2023-12-21T20:56:18.661Z,10.55
2023-12-21T20:58:45.549Z,10.55
2023-12-21T21:01:12.640Z,10.54
2023-12-21T21:03:39.608Z,10.50
2023-12-21T21:06:07.122Z,10.59
2023-12-21T21:08:34.136Z,10.70
2023-12-21T21:11:01.004Z,10.62
2023-12-21T21:13:27.885Z,10.60
2023-12-21T21:15:54.921Z,10.60
2023-12-21T21:18:22.584Z,10.70
2023-12-21T21:20:49.544Z,10.72
2023-12-21T21:23:16.447Z,10.64
2023-12-21T21:25:43.716Z,10.72
2023-12-21T21:28:10.587Z,10.71
2023-12-21T21:30:56.203Z,10.75
2023-12-21T21:33:24.378Z,10.67
2023-12-21T21:35:52.794Z,10.65
2023-12-21T21:38:19.742Z,10.75
2023-12-21T21:40:46.672Z,10.63
2023-12-21T21:43:14.453Z,10.60
2023-12-21T21:45:41.375Z,10.58
2023-12-21T21:48:08.415Z,10.66
2023-12-21T21:50:35.955Z,10.63
2023-12-21T21:53:02.786Z,10.61
2023-12-21T21:55:29.697Z,10.56
2023-12-21T21:57:57.172Z,10.55
2023-12-21T22:00:24.286Z,10.37
2023-12-21T22:02:51.177Z,10.51
2023-12-21T22:05:18.128Z,10.49
2023-12-21T22:07:45.177Z,10.44
2023-12-21T22:10:12.172Z,10.45
2023-12-21T22:12:39.068Z,10.42
2023-12-21T22:15:06.698Z,10.40
2023-12-21T22:17:33.581Z,10.49
2023-12-21T22:20:00.567Z,10.48
2023-12-21T22:22:27.455Z,10.42
2023-12-21T22:24:54.292Z,10.46
2023-12-21T22:27:21.621Z,10.50
2023-12-21T22:29:51.050Z,10.33
2023-12-21T22:32:19.586Z,10.24
2023-12-21T22:34:47.568Z,10.24
2023-12-21T22:37:17.691Z,10.24
2023-12-21T22:39:45.312Z,10.23
2023-12-21T22:42:12.144Z,10.28
2023-12-21T22:44:39.002Z,10.31
2023-12-21T22:47:05.876Z,10.19
2023-12-21T22:49:32.788Z,10.10
2023-12-21T22:51:59.766Z,10.10
2023-12-21T22:54:26.635Z,10.00
2023-12-21T22:56:53.617Z,9.86
2023-12-21T22:59:20.484Z,9.92
2023-12-21T23:01:47.339Z,9.85
2023-12-21T23:04:14.200Z,10.13
2023-12-21T23:06:41.459Z,9.91
2023-12-21T23:09:08.659Z,9.72
2023-12-21T23:11:35.892Z,9.52
2023-12-21T23:14:02.805Z,9.41
2023-12-21T23:16:29.837Z,9.33
2023-12-21T23:18:56.867Z,9.44
2023-12-21T23:21:24.391Z,9.52
2023-12-21T23:23:51.208Z,9.36
2023-12-21T23:26:20.599Z,9.31
2023-12-21T23:28:47.610Z,9.37
2023-12-21T23:31:14.728Z,9.37
2023-12-21T23:33:41.623Z,9.30
2023-12-21T23:36:08.556Z,9.40
2023-12-21T23:38:35.400Z,9.39
2023-12-21T23:41:05.910Z,9.33
2023-12-21T23:43:32.818Z,9.32
2023-12-21T23:45:59.672Z,9.25
2023-12-21T23:48:26.600Z,9.30
2023-12-21T23:50:53.446Z,9.19
2023-12-21T23:53:20.262Z,9.29
2023-12-21T23:55:47.127Z,9.17
2023-12-21T23:58:14.402Z,9.09
